createdAt,value
2019-06-15T19:12:47.620Z,19.57
2019-06-15T19:15:17.088Z,19.57
2019-06-15T19:17:46.477Z,19.56
2019-06-15T19:20:16.871Z,19.62
2019-06-15T19:22:47.499Z,19.64
2019-06-15T19:25:16.202Z,19.57
2019-06-15T19:27:44.158Z,19.51
2019-06-15T19:30:13.737Z,19.50
2019-06-15T19:32:42.906Z,19.40
2019-06-15T19:35:12.443Z,19.21
2019-06-15T19:37:41.916Z,19.07
2019-06-15T19:40:11.254Z,18.97
2019-06-15T19:42:40.701Z,18.87
2019-06-15T19:45:10.729Z,18.84
2019-06-15T19:47:39.940Z,18.68
2019-06-15T19:50:10.083Z,18.48
2019-06-15T19:52:38.214Z,18.36
2019-06-15T19:55:07.683Z,18.38
2019-06-15T19:57:37.158Z,18.44
2019-06-15T20:00:07.536Z,18.41
2019-06-15T20:02:36.775Z,18.34
2019-06-15T20:05:06.954Z,18.20
2019-06-15T20:07:36.888Z,18.06
2019-06-15T20:10:07.393Z,17.93
2019-06-15T20:12:37.439Z,17.60
2019-06-15T20:15:06.544Z,17.35
2019-06-15T20:17:36.752Z,17.17
2019-06-15T20:20:06.991Z,17.04
2019-06-15T20:22:37.357Z,16.90
2019-06-15T20:25:06.652Z,16.73
2019-06-15T20:27:35.513Z,16.60
2019-06-15T20:30:06.302Z,16.50
2019-06-15T20:32:33.566Z,16.53
2019-06-15T20:35:16.185Z,16.63
2019-06-15T20:37:32.807Z,16.61
2019-06-15T20:40:02.147Z,16.69
2019-06-15T20:42:31.626Z,16.82
2019-06-15T20:45:00.807Z,16.78
2019-06-15T20:47:30.309Z,16.78
2019-06-15T20:50:00.020Z,16.89
2019-06-15T20:52:29.511Z,16.93
2019-06-15T20:54:58.938Z,16.93
2019-06-15T20:57:28.139Z,16.86
2019-06-15T20:59:57.559Z,16.71
2019-06-15T21:02:27.149Z,16.44
2019-06-15T21:04:56.576Z,16.19
2019-06-15T21:07:26.924Z,16.08
2019-06-15T21:09:57.270Z,15.93
2019-06-15T21:12:26.868Z,15.79
2019-06-15T21:14:56.078Z,15.75
2019-06-15T21:17:23.459Z,15.73
2019-06-15T21:19:52.923Z,15.67
2019-06-15T21:22:22.498Z,15.64
2019-06-15T21:24:54.653Z,15.43
2019-06-15T21:27:21.157Z,15.30
2019-06-15T21:29:50.517Z,15.24
2019-06-15T21:32:20.038Z,15.25
2019-06-15T21:34:49.833Z,15.16
2019-06-15T21:37:19.261Z,15.13
2019-06-15T21:39:48.786Z,15.19
2019-06-15T21:42:18.196Z,15.17
2019-06-15T21:44:47.349Z,15.07
2019-06-15T21:47:16.751Z,15.06
2019-06-15T21:49:46.869Z,15.00
2019-06-15T21:52:16.656Z,14.96
2019-06-15T21:54:46.825Z,15.23
2019-06-15T21:57:16.032Z,15.22
2019-06-15T21:59:43.706Z,15.24
2019-06-15T22:02:13.201Z,15.24
2019-06-15T22:04:42.328Z,15.13
2019-06-15T22:07:11.810Z,15.23
2019-06-15T22:09:40.962Z,15.27
2019-06-15T22:12:10.234Z,15.27
2019-06-15T22:14:39.407Z,14.99
2019-06-15T22:17:08.827Z,14.80
2019-06-15T22:19:38.624Z,14.65
2019-06-15T22:22:08.073Z,14.57
2019-06-15T22:24:37.251Z,14.59
2019-06-15T22:27:06.812Z,14.63
2019-06-15T22:29:36.620Z,14.61
2019-06-15T22:32:06.842Z,14.62
2019-06-15T22:34:36.281Z,14.65
2019-06-15T22:37:06.938Z,14.63
2019-06-15T22:39:33.727Z,14.78
2019-06-15T22:42:06.688Z,14.91
2019-06-15T22:44:33.644Z,15.02
2019-06-15T22:47:03.613Z,14.94
2019-06-15T22:49:35.880Z,14.87
2019-06-15T22:52:03.321Z,14.87
2019-06-15T22:54:32.524Z,15.04
2019-06-15T22:57:02.005Z,15.34
2019-06-15T22:59:30.841Z,15.54
2019-06-15T23:01:59.997Z,15.61
2019-06-15T23:04:29.522Z,15.67
2019-06-15T23:06:59.119Z,15.70
2019-06-15T23:09:28.243Z,15.71
2019-06-15T23:11:57.639Z,15.77
2019-06-15T23:14:27.073Z,15.70
2019-06-15T23:16:56.871Z,15.66
2019-06-15T23:19:26.287Z,15.75
2019-06-15T23:21:57.185Z,15.82
2019-06-15T23:24:27.246Z,15.83
2019-06-15T23:26:56.948Z,15.79
2019-06-15T23:29:23.858Z,15.81
2019-06-15T23:31:53.873Z,15.77
2019-06-15T23:34:23.415Z,15.74
2019-06-15T23:36:56.980Z,15.69
2019-06-15T23:39:22.040Z,15.68
2019-06-15T23:41:51.274Z,15.66
2019-06-15T23:44:20.756Z,15.65
2019-06-15T23:46:50.125Z,15.68
2019-06-15T23:49:19.578Z,15.80
2019-06-15T23:51:49.208Z,16.02
2019-06-15T23:54:18.496Z,16.17
2019-06-15T23:56:47.388Z,16.19
2019-06-15T23:59:18.017Z,16.24
